WZZ64PL EGPH-EGKK
Flight info
| Callsign | WZZ64PL |
|---|---|
| Flight time | N/A |
| Altitude | 37000 |
| Route | GOSAM P600 FENIK L612 NAVSO DCT ADZOP DCT EGTOC DCT KEPAD L151 DISIT |
| Aircraft | A320/M-SDE3FGHIRWY/LB1 |
Departure
| Time | 2026-04-24 14:10 |
|---|---|
| Airport | Edinburgh Airport (EGPH) |
Arrival
| Time | N/A |
|---|---|
| Airport | London Gatwick Airport (EGKK) |
| Time | Latitude | Longitude | Altitude | Speed | Heading |
|---|---|---|---|---|---|
| 2026-04-24 13:38 | 55.94752 | -3.36602 | 107 ft | 0 kts | 89° |
| 2026-04-24 14:00 | 55.94752 | -3.36635 | 106 ft | 4 kts | 89° |
| 2026-04-24 14:00 | 55.94751 | -3.36682 | 105 ft | 4 kts | 78° |
| 2026-04-24 14:01 | 55.94742 | -3.36721 | 104 ft | 4 kts | 33° |
| 2026-04-24 14:01 | 55.94727 | -3.36729 | 103 ft | 0 kts | 345° |
| 2026-04-24 14:03 | 55.94729 | -3.36730 | 103 ft | 2 kts | 345° |
| 2026-04-24 14:03 | 55.94755 | -3.36748 | 104 ft | 6 kts | 332° |
| 2026-04-24 14:03 | 55.94805 | -3.36776 | 105 ft | 9 kts | 358° |
| 2026-04-24 14:03 | 55.94878 | -3.36786 | 105 ft | 11 kts | 342° |
| 2026-04-24 14:04 | 55.94922 | -3.36897 | 104 ft | 13 kts | 252° |
| 2026-04-24 14:04 | 55.94871 | -3.37057 | 105 ft | 16 kts | 239° |
| 2026-04-24 14:04 | 55.94811 | -3.37236 | 105 ft | 18 kts | 239° |
| 2026-04-24 14:04 | 55.94746 | -3.37425 | 108 ft | 18 kts | 238° |
| 2026-04-24 14:05 | 55.94681 | -3.37618 | 112 ft | 18 kts | 239° |
| 2026-04-24 14:05 | 55.94612 | -3.37818 | 112 ft | 20 kts | 238° |
| 2026-04-24 14:05 | 55.94533 | -3.38051 | 110 ft | 24 kts | 239° |
| 2026-04-24 14:05 | 55.94442 | -3.38320 | 113 ft | 26 kts | 239° |
| 2026-04-24 14:06 | 55.94352 | -3.38588 | 116 ft | 20 kts | 239° |
| 2026-04-24 14:06 | 55.94292 | -3.38759 | 117 ft | 16 kts | 238° |
| 2026-04-24 14:06 | 55.94305 | -3.38888 | 118 ft | 11 kts | 326° |
| 2026-04-24 14:06 | 55.94316 | -3.38899 | 119 ft | 0 kts | 331° |
| 2026-04-24 14:08 | 55.94324 | -3.38907 | 117 ft | 4 kts | 331° |
| 2026-04-24 14:08 | 55.94361 | -3.38944 | 117 ft | 9 kts | 331° |
| 2026-04-24 14:08 | 55.94424 | -3.38937 | 115 ft | 11 kts | 47° |
| 2026-04-24 14:08 | 55.94430 | -3.38920 | 118 ft | 0 kts | 56° |
| 2026-04-24 14:09 | 55.94434 | -3.38909 | 118 ft | 7 kts | 57° |
| 2026-04-24 14:10 | 55.94514 | -3.38678 | 113 ft | 59 kts | 58° |
| 2026-04-24 14:10 | 55.95003 | -3.37248 | 108 ft | 137 kts | 58° |
| 2026-04-24 14:10 | 55.95566 | -3.35612 | 305 ft | 166 kts | 59° |
| 2026-04-24 14:10 | 55.96175 | -3.33790 | 882 ft | 172 kts | 53° |
| 2026-04-24 14:11 | 55.96997 | -3.32252 | 1655 ft | 172 kts | 40° |
| 2026-04-24 14:11 | 55.97961 | -3.30763 | 2065 ft | 195 kts | 39° |
| 2026-04-24 14:11 | 56.00504 | -3.28003 | 2928 ft | 239 kts | 1° |
| 2026-04-24 14:12 | 56.02138 | -3.28775 | 3469 ft | 254 kts | 323° |
| 2026-04-24 14:12 | 56.03194 | -3.31267 | 4319 ft | 258 kts | 287° |
| 2026-04-24 14:12 | 56.03293 | -3.34431 | 5254 ft | 262 kts | 263° |
| 2026-04-24 14:12 | 56.02941 | -3.37705 | 5809 ft | 267 kts | 257° |
| 2026-04-24 14:13 | 56.02444 | -3.40902 | 5973 ft | 266 kts | 254° |
| 2026-04-24 14:13 | 56.01906 | -3.44075 | 6007 ft | 266 kts | 253° |
| 2026-04-24 14:13 | 56.01382 | -3.47210 | 6010 ft | 266 kts | 254° |
| 2026-04-24 14:13 | 56.00874 | -3.50390 | 6009 ft | 266 kts | 255° |
| 2026-04-24 14:14 | 56.00386 | -3.53583 | 6009 ft | 266 kts | 256° |
| 2026-04-24 14:14 | 55.99914 | -3.56784 | 6007 ft | 266 kts | 256° |
| 2026-04-24 14:14 | 55.98999 | -3.63184 | 6005 ft | 266 kts | 256° |
| 2026-04-24 14:15 | 55.98546 | -3.66385 | 6001 ft | 266 kts | 256° |
| 2026-04-24 14:15 | 55.98091 | -3.69586 | 6000 ft | 266 kts | 256° |
| 2026-04-24 14:15 | 55.97631 | -3.72792 | 5997 ft | 266 kts | 256° |
| 2026-04-24 14:15 | 55.97168 | -3.75994 | 5982 ft | 266 kts | 256° |
| 2026-04-24 14:16 | 55.96704 | -3.79189 | 5981 ft | 266 kts | 256° |
| 2026-04-24 14:16 | 55.96238 | -3.82406 | 5977 ft | 266 kts | 256° |
| 2026-04-24 14:16 | 55.95771 | -3.85613 | 6472 ft | 270 kts | 256° |
| 2026-04-24 14:17 | 55.94820 | -3.92134 | 8354 ft | 274 kts | 256° |
| 2026-04-24 14:17 | 55.94336 | -3.95443 | 9259 ft | 277 kts | 256° |
| 2026-04-24 14:17 | 55.92754 | -4.01778 | 10937 ft | 287 kts | 236° |
| 2026-04-24 14:18 | 55.91413 | -4.04502 | 11726 ft | 293 kts | 224° |
| 2026-04-24 14:18 | 55.89762 | -4.06756 | 12385 ft | 304 kts | 216° |
| 2026-04-24 14:18 | 55.87954 | -4.08973 | 12610 ft | 327 kts | 216° |
| 2026-04-24 14:18 | 55.86010 | -4.11350 | 12780 ft | 349 kts | 216° |
| 2026-04-24 14:19 | 55.84668 | -4.12986 | 13085 ft | 356 kts | 216° |
| 2026-04-24 14:19 | 55.81907 | -4.16344 | 13958 ft | 363 kts | 216° |
| 2026-04-24 14:19 | 55.79814 | -4.18895 | 14603 ft | 366 kts | 216° |
| 2026-04-24 14:19 | 55.77702 | -4.21478 | 15217 ft | 370 kts | 216° |
| 2026-04-24 14:20 | 55.75452 | -4.23725 | 15811 ft | 375 kts | 204° |
| 2026-04-24 14:20 | 55.72948 | -4.25081 | 16354 ft | 379 kts | 191° |
| 2026-04-24 14:20 | 55.70294 | -4.25400 | 16945 ft | 384 kts | 178° |
| 2026-04-24 14:20 | 55.67650 | -4.24627 | 17552 ft | 388 kts | 164° |
| 2026-04-24 14:21 | 55.65133 | -4.22875 | 18159 ft | 391 kts | 154° |
| 2026-04-24 14:21 | 55.62739 | -4.20536 | 18770 ft | 393 kts | 151° |
| 2026-04-24 14:21 | 55.60339 | -4.18166 | 19340 ft | 396 kts | 151° |
| 2026-04-24 14:21 | 55.57920 | -4.15797 | 19888 ft | 399 kts | 151° |
| 2026-04-24 14:22 | 55.55480 | -4.13423 | 20442 ft | 402 kts | 152° |
| 2026-04-24 14:22 | 55.53852 | -4.11844 | 20801 ft | 404 kts | 152° |
| 2026-04-24 14:22 | 55.48895 | -4.07041 | 21811 ft | 409 kts | 151° |
| 2026-04-24 14:23 | 55.46394 | -4.04614 | 22306 ft | 412 kts | 151° |
| 2026-04-24 14:23 | 55.43868 | -4.02161 | 22787 ft | 415 kts | 150° |
| 2026-04-24 14:23 | 55.41335 | -3.99705 | 23273 ft | 418 kts | 150° |
| 2026-04-24 14:23 | 55.38776 | -3.97228 | 23740 ft | 421 kts | 151° |
| 2026-04-24 14:24 | 55.36209 | -3.94746 | 24152 ft | 424 kts | 151° |
| 2026-04-24 14:24 | 55.33613 | -3.92244 | 24529 ft | 426 kts | 150° |
| 2026-04-24 14:24 | 55.31004 | -3.89732 | 24923 ft | 429 kts | 150° |
| 2026-04-24 14:24 | 55.28379 | -3.87205 | 25299 ft | 432 kts | 150° |
| 2026-04-24 14:25 | 55.25732 | -3.84657 | 25663 ft | 435 kts | 150° |
| 2026-04-24 14:25 | 55.23065 | -3.82149 | 26004 ft | 438 kts | 154° |
| 2026-04-24 14:25 | 55.20208 | -3.80196 | 26368 ft | 442 kts | 161° |
| 2026-04-24 14:25 | 55.17259 | -3.78589 | 26725 ft | 445 kts | 161° |
| 2026-04-24 14:26 | 55.14287 | -3.76964 | 27090 ft | 448 kts | 161° |
| 2026-04-24 14:26 | 55.11303 | -3.75330 | 27268 ft | 450 kts | 161° |
| 2026-04-24 14:26 | 55.08318 | -3.73696 | 27305 ft | 450 kts | 161° |
| 2026-04-24 14:26 | 55.05326 | -3.72064 | 27305 ft | 450 kts | 161° |
| 2026-04-24 14:27 | 55.02345 | -3.70441 | 27300 ft | 450 kts | 161° |
| 2026-04-24 14:27 | 54.99318 | -3.68795 | 27316 ft | 450 kts | 161° |
| 2026-04-24 14:27 | 54.96321 | -3.67164 | 27310 ft | 450 kts | 161° |
| 2026-04-24 14:27 | 54.93336 | -3.65541 | 27318 ft | 450 kts | 161° |
| 2026-04-24 14:28 | 54.90388 | -3.63938 | 27311 ft | 450 kts | 161° |
| 2026-04-24 14:28 | 54.87358 | -3.62295 | 27309 ft | 450 kts | 161° |
| 2026-04-24 14:28 | 54.84364 | -3.60674 | 27314 ft | 450 kts | 161° |
| 2026-04-24 14:28 | 54.81413 | -3.59081 | 27314 ft | 450 kts | 161° |
| 2026-04-24 14:29 | 54.78379 | -3.57449 | 27317 ft | 450 kts | 161° |
| 2026-04-24 14:29 | 54.75383 | -3.55841 | 27311 ft | 450 kts | 161° |
| 2026-04-24 14:29 | 54.72389 | -3.54239 | 27313 ft | 450 kts | 161° |
| 2026-04-24 14:29 | 54.69392 | -3.52635 | 27318 ft | 450 kts | 161° |
| 2026-04-24 14:30 | 54.66399 | -3.51033 | 27312 ft | 450 kts | 161° |
| 2026-04-24 14:30 | 54.63406 | -3.49434 | 27323 ft | 450 kts | 161° |
| 2026-04-24 14:30 | 54.60444 | -3.47851 | 27317 ft | 450 kts | 161° |
| 2026-04-24 14:30 | 54.57448 | -3.46253 | 27321 ft | 450 kts | 161° |
| 2026-04-24 14:31 | 54.54457 | -3.44660 | 27324 ft | 450 kts | 161° |
| 2026-04-24 14:31 | 54.51462 | -3.43068 | 27318 ft | 450 kts | 161° |
| 2026-04-24 14:31 | 54.48469 | -3.41481 | 27312 ft | 450 kts | 161° |
| 2026-04-24 14:31 | 54.45473 | -3.39894 | 27318 ft | 450 kts | 161° |
| 2026-04-24 14:32 | 54.42470 | -3.38308 | 27313 ft | 452 kts | 161° |
| 2026-04-24 14:32 | 54.39464 | -3.36721 | 27316 ft | 453 kts | 161° |
| 2026-04-24 14:32 | 54.36451 | -3.35135 | 27315 ft | 453 kts | 161° |
| 2026-04-24 14:32 | 54.33436 | -3.33549 | 27319 ft | 453 kts | 161° |
| 2026-04-24 14:33 | 54.30424 | -3.31960 | 27315 ft | 453 kts | 161° |
| 2026-04-24 14:33 | 54.27414 | -3.30368 | 27314 ft | 453 kts | 161° |
| 2026-04-24 14:33 | 54.24401 | -3.28783 | 27317 ft | 453 kts | 161° |
| 2026-04-24 14:33 | 54.21387 | -3.27207 | 27313 ft | 453 kts | 161° |
| 2026-04-24 14:34 | 54.18341 | -3.25789 | 27318 ft | 455 kts | 167° |
| 2026-04-24 14:34 | 54.15198 | -3.25077 | 27315 ft | 457 kts | 174° |
| 2026-04-24 14:34 | 54.12028 | -3.24597 | 27317 ft | 458 kts | 174° |
| 2026-04-24 14:34 | 54.08851 | -3.24109 | 27312 ft | 458 kts | 174° |
| 2026-04-24 14:35 | 54.05683 | -3.23618 | 27314 ft | 458 kts | 174° |
| 2026-04-24 14:35 | 54.02501 | -3.23112 | 27311 ft | 458 kts | 172° |
| 2026-04-24 14:35 | 53.99385 | -3.22116 | 27312 ft | 456 kts | 163° |
| 2026-04-24 14:35 | 53.96384 | -3.20382 | 27304 ft | 455 kts | 157° |
| 2026-04-24 14:36 | 53.93422 | -3.18442 | 27302 ft | 455 kts | 158° |
| 2026-04-24 14:36 | 53.90462 | -3.16518 | 27309 ft | 455 kts | 158° |
| 2026-04-24 14:36 | 53.87502 | -3.14611 | 27308 ft | 455 kts | 159° |
| 2026-04-24 14:36 | 53.84542 | -3.12718 | 27307 ft | 453 kts | 159° |
| 2026-04-24 14:37 | 53.81596 | -3.10843 | 27299 ft | 452 kts | 159° |
| 2026-04-24 14:37 | 53.78660 | -3.08973 | 27302 ft | 452 kts | 159° |
| 2026-04-24 14:37 | 53.75718 | -3.07092 | 27302 ft | 451 kts | 159° |
| 2026-04-24 14:37 | 53.72777 | -3.05208 | 27301 ft | 451 kts | 159° |
| 2026-04-24 14:38 | 53.69840 | -3.03330 | 27299 ft | 451 kts | 159° |
| 2026-04-24 14:38 | 53.66900 | -3.01455 | 27302 ft | 452 kts | 159° |
| 2026-04-24 14:38 | 53.63957 | -2.99580 | 27299 ft | 452 kts | 159° |
| 2026-04-24 14:38 | 53.61022 | -2.97713 | 27302 ft | 453 kts | 159° |
| 2026-04-24 14:39 | 53.58057 | -2.95834 | 27302 ft | 453 kts | 159° |
| 2026-04-24 14:39 | 53.55107 | -2.93968 | 27302 ft | 454 kts | 159° |
| 2026-04-24 14:39 | 53.52152 | -2.92102 | 27299 ft | 454 kts | 159° |
| 2026-04-24 14:39 | 53.49199 | -2.90235 | 27304 ft | 453 kts | 159° |
| 2026-04-24 14:40 | 53.46248 | -2.88370 | 27303 ft | 453 kts | 159° |
| 2026-04-24 14:40 | 53.43298 | -2.86508 | 27302 ft | 453 kts | 159° |
| 2026-04-24 14:40 | 53.40357 | -2.84661 | 27302 ft | 452 kts | 159° |
| 2026-04-24 14:40 | 53.37404 | -2.82812 | 27302 ft | 453 kts | 159° |
| 2026-04-24 14:41 | 53.34452 | -2.80962 | 27309 ft | 453 kts | 159° |
| 2026-04-24 14:41 | 53.31500 | -2.79109 | 27308 ft | 453 kts | 159° |
| 2026-04-24 14:41 | 53.28552 | -2.77262 | 27306 ft | 454 kts | 159° |
| 2026-04-24 14:41 | 53.25588 | -2.75408 | 27308 ft | 454 kts | 159° |
| 2026-04-24 14:42 | 53.22638 | -2.73568 | 27305 ft | 453 kts | 159° |
| 2026-04-24 14:42 | 53.19671 | -2.71723 | 27308 ft | 453 kts | 160° |
| 2026-04-24 14:42 | 53.16717 | -2.69885 | 27309 ft | 453 kts | 160° |
| 2026-04-24 14:42 | 53.13760 | -2.68049 | 27309 ft | 453 kts | 160° |
| 2026-04-24 14:43 | 53.10808 | -2.66219 | 27304 ft | 453 kts | 160° |
| 2026-04-24 14:43 | 53.07855 | -2.64397 | 27305 ft | 453 kts | 160° |
| 2026-04-24 14:43 | 53.04894 | -2.62572 | 27305 ft | 453 kts | 160° |
| 2026-04-24 14:43 | 53.01930 | -2.60748 | 27303 ft | 454 kts | 160° |
| 2026-04-24 14:44 | 52.98965 | -2.58923 | 27301 ft | 454 kts | 160° |
| 2026-04-24 14:44 | 52.96008 | -2.57102 | 27301 ft | 455 kts | 161° |
| 2026-04-24 14:44 | 52.93025 | -2.55268 | 27307 ft | 456 kts | 161° |
| 2026-04-24 14:44 | 52.90007 | -2.53414 | 27302 ft | 456 kts | 161° |
| 2026-04-24 14:45 | 52.87037 | -2.51595 | 27312 ft | 455 kts | 161° |
| 2026-04-24 14:45 | 52.84079 | -2.49791 | 27300 ft | 452 kts | 161° |
| 2026-04-24 14:45 | 52.81169 | -2.47798 | 27301 ft | 452 kts | 154° |
| 2026-04-24 14:45 | 52.78465 | -2.45156 | 27301 ft | 453 kts | 147° |
| 2026-04-24 14:46 | 52.75845 | -2.42251 | 27302 ft | 453 kts | 147° |
| 2026-04-24 14:46 | 52.73222 | -2.39338 | 27297 ft | 454 kts | 148° |
| 2026-04-24 14:46 | 52.70587 | -2.36419 | 27305 ft | 458 kts | 148° |
| 2026-04-24 14:46 | 52.67935 | -2.33495 | 27305 ft | 459 kts | 148° |
| 2026-04-24 14:47 | 52.66181 | -2.31564 | 27304 ft | 459 kts | 148° |
| 2026-04-24 14:47 | 52.62627 | -2.27662 | 27302 ft | 459 kts | 148° |
| 2026-04-24 14:47 | 52.59958 | -2.24744 | 27302 ft | 459 kts | 148° |
| 2026-04-24 14:47 | 52.57288 | -2.21833 | 27302 ft | 459 kts | 148° |
| 2026-04-24 14:48 | 52.54629 | -2.18935 | 27303 ft | 459 kts | 148° |
| 2026-04-24 14:48 | 52.51964 | -2.16031 | 27301 ft | 459 kts | 148° |
| 2026-04-24 14:48 | 52.49300 | -2.13131 | 27267 ft | 460 kts | 149° |
| 2026-04-24 14:48 | 52.46608 | -2.10207 | 27012 ft | 467 kts | 149° |
| 2026-04-24 14:49 | 52.43896 | -2.07264 | 26758 ft | 466 kts | 149° |
| 2026-04-24 14:49 | 52.41202 | -2.04340 | 26500 ft | 465 kts | 148° |
| 2026-04-24 14:49 | 52.38509 | -2.01421 | 26248 ft | 462 kts | 148° |
| 2026-04-24 14:49 | 52.35839 | -1.98529 | 26027 ft | 460 kts | 148° |
| 2026-04-24 14:50 | 52.33169 | -1.95644 | 25776 ft | 456 kts | 148° |
| 2026-04-24 14:50 | 52.30526 | -1.92798 | 25483 ft | 451 kts | 148° |
| 2026-04-24 14:50 | 52.27918 | -1.89997 | 24819 ft | 447 kts | 148° |
| 2026-04-24 14:50 | 52.25334 | -1.87221 | 24145 ft | 444 kts | 149° |
| 2026-04-24 14:51 | 52.22761 | -1.84454 | 23416 ft | 440 kts | 149° |
| 2026-04-24 14:51 | 52.20216 | -1.81720 | 22752 ft | 434 kts | 149° |
| 2026-04-24 14:51 | 52.17709 | -1.79035 | 22118 ft | 428 kts | 149° |
| 2026-04-24 14:51 | 52.15236 | -1.76397 | 21497 ft | 422 kts | 148° |
| 2026-04-24 14:52 | 52.12793 | -1.73797 | 20897 ft | 416 kts | 148° |
| 2026-04-24 14:52 | 52.10386 | -1.71239 | 20321 ft | 410 kts | 148° |
| 2026-04-24 14:52 | 52.08028 | -1.68728 | 19946 ft | 401 kts | 148° |
| 2026-04-24 14:52 | 52.05710 | -1.66246 | 19614 ft | 397 kts | 147° |
| 2026-04-24 14:53 | 52.03440 | -1.63736 | 19254 ft | 393 kts | 147° |
| 2026-04-24 14:53 | 52.01152 | -1.61295 | 18903 ft | 391 kts | 148° |
| 2026-04-24 14:53 | 51.98881 | -1.58921 | 18558 ft | 387 kts | 148° |
| 2026-04-24 14:53 | 51.96651 | -1.56607 | 18178 ft | 383 kts | 148° |
| 2026-04-24 14:54 | 51.94411 | -1.54277 | 17861 ft | 382 kts | 148° |
| 2026-04-24 14:54 | 51.92188 | -1.51952 | 17529 ft | 380 kts | 148° |
| 2026-04-24 14:54 | 51.89973 | -1.49626 | 17199 ft | 378 kts | 148° |
| 2026-04-24 14:54 | 51.87774 | -1.47309 | 16867 ft | 376 kts | 148° |
| 2026-04-24 14:55 | 51.86292 | -1.45747 | 16635 ft | 375 kts | 148° |
| 2026-04-24 14:55 | 51.83403 | -1.42708 | 16207 ft | 373 kts | 148° |
| 2026-04-24 14:55 | 51.81233 | -1.40431 | 15880 ft | 371 kts | 148° |
| 2026-04-24 14:55 | 51.79079 | -1.38168 | 15562 ft | 370 kts | 148° |
| 2026-04-24 14:56 | 51.76923 | -1.35908 | 15241 ft | 369 kts | 148° |
| 2026-04-24 14:56 | 51.74767 | -1.33650 | 15097 ft | 369 kts | 148° |
| 2026-04-24 14:56 | 51.72613 | -1.31400 | 14944 ft | 368 kts | 148° |
| 2026-04-24 14:56 | 51.70462 | -1.29162 | 14802 ft | 367 kts | 148° |
| 2026-04-24 14:57 | 51.68320 | -1.26937 | 14646 ft | 367 kts | 148° |
| 2026-04-24 14:57 | 51.66890 | -1.25449 | 14547 ft | 368 kts | 148° |
| 2026-04-24 14:57 | 51.64743 | -1.23215 | 14395 ft | 368 kts | 148° |
| 2026-04-24 14:57 | 51.62589 | -1.20976 | 14238 ft | 368 kts | 148° |
| 2026-04-24 14:58 | 51.60417 | -1.18726 | 14087 ft | 367 kts | 148° |
| 2026-04-24 14:58 | 51.58269 | -1.16503 | 13919 ft | 366 kts | 148° |
| 2026-04-24 14:58 | 51.56725 | -1.14905 | 13819 ft | 366 kts | 147° |
| 2026-04-24 14:58 | 51.54587 | -1.12691 | 13661 ft | 364 kts | 147° |
| 2026-04-24 14:59 | 51.52464 | -1.10491 | 13513 ft | 363 kts | 147° |
| 2026-04-24 14:59 | 51.50355 | -1.08311 | 13363 ft | 362 kts | 148° |
| 2026-04-24 14:59 | 51.48218 | -1.06115 | 13210 ft | 361 kts | 148° |
| 2026-04-24 14:59 | 51.46108 | -1.03950 | 13065 ft | 360 kts | 148° |
| 2026-04-24 15:00 | 51.44005 | -1.01795 | 12910 ft | 357 kts | 148° |
| 2026-04-24 15:00 | 51.41918 | -0.99657 | 12766 ft | 356 kts | 148° |
| 2026-04-24 15:00 | 51.39828 | -0.97515 | 12615 ft | 356 kts | 148° |
| 2026-04-24 15:00 | 51.37743 | -0.95378 | 12448 ft | 356 kts | 148° |
| 2026-04-24 15:01 | 51.35659 | -0.93242 | 12320 ft | 356 kts | 148° |
| 2026-04-24 15:01 | 51.33569 | -0.91098 | 12167 ft | 356 kts | 148° |
| 2026-04-24 15:01 | 51.31484 | -0.88962 | 12030 ft | 356 kts | 148° |
| 2026-04-24 15:01 | 51.29398 | -0.86830 | 11881 ft | 355 kts | 148° |
| 2026-04-24 15:02 | 51.27320 | -0.84713 | 11736 ft | 354 kts | 148° |
| 2026-04-24 15:02 | 51.25244 | -0.82603 | 11590 ft | 354 kts | 148° |
| 2026-04-24 15:02 | 51.23167 | -0.80492 | 11444 ft | 353 kts | 148° |
| 2026-04-24 15:02 | 51.21098 | -0.78391 | 11298 ft | 352 kts | 148° |
| 2026-04-24 15:03 | 51.19046 | -0.76307 | 11153 ft | 348 kts | 148° |
| 2026-04-24 15:03 | 51.17053 | -0.74284 | 11010 ft | 331 kts | 148° |
| 2026-04-24 15:03 | 51.15151 | -0.72357 | 10889 ft | 316 kts | 148° |
| 2026-04-24 15:03 | 51.13329 | -0.70516 | 10766 ft | 304 kts | 148° |
| 2026-04-24 15:04 | 51.11578 | -0.68749 | 10641 ft | 293 kts | 148° |
| 2026-04-24 15:04 | 51.09891 | -0.67049 | 10504 ft | 283 kts | 148° |
| 2026-04-24 15:04 | 51.08240 | -0.65384 | 10344 ft | 276 kts | 148° |
| 2026-04-24 15:04 | 51.06651 | -0.63742 | 10264 ft | 277 kts | 143° |
| 2026-04-24 15:05 | 51.05245 | -0.61567 | 10153 ft | 280 kts | 128° |
| 2026-04-24 15:05 | 51.04262 | -0.58916 | 10023 ft | 279 kts | 117° |
| 2026-04-24 15:05 | 51.03408 | -0.56141 | 9916 ft | 278 kts | 117° |
| 2026-04-24 15:05 | 51.02543 | -0.53367 | 9797 ft | 281 kts | 117° |
| 2026-04-24 15:06 | 51.01687 | -0.50632 | 9675 ft | 279 kts | 118° |
| 2026-04-24 15:06 | 51.00815 | -0.47848 | 9571 ft | 279 kts | 118° |
| 2026-04-24 15:06 | 50.99953 | -0.45103 | 9461 ft | 276 kts | 118° |
| 2026-04-24 15:06 | 50.99106 | -0.42417 | 9340 ft | 276 kts | 117° |
| 2026-04-24 15:07 | 50.98242 | -0.39687 | 9225 ft | 276 kts | 117° |
| 2026-04-24 15:07 | 50.97377 | -0.36953 | 9115 ft | 277 kts | 117° |
| 2026-04-24 15:07 | 50.96513 | -0.34222 | 8996 ft | 275 kts | 117° |
| 2026-04-24 15:07 | 50.95656 | -0.31507 | 8874 ft | 275 kts | 118° |
| 2026-04-24 15:08 | 50.95016 | -0.28671 | 8726 ft | 274 kts | 98° |
| 2026-04-24 15:08 | 50.95198 | -0.25681 | 8384 ft | 276 kts | 73° |
| 2026-04-24 15:08 | 50.95861 | -0.22819 | 8029 ft | 278 kts | 63° |
| 2026-04-24 15:08 | 50.97123 | -0.20520 | 7743 ft | 280 kts | 36° |
| 2026-04-24 15:09 | 50.98912 | -0.19425 | 7604 ft | 275 kts | 7° |
| 2026-04-24 15:09 | 51.00781 | -0.19777 | 7474 ft | 270 kts | 338° |
| 2026-04-24 15:09 | 51.02279 | -0.21448 | 7354 ft | 262 kts | 309° |
| 2026-04-24 15:09 | 51.03060 | -0.23983 | 7157 ft | 255 kts | 278° |
| 2026-04-24 15:10 | 51.03075 | -0.26781 | 6700 ft | 259 kts | 263° |
| 2026-04-24 15:10 | 51.02873 | -0.29715 | 5750 ft | 274 kts | 262° |
| 2026-04-24 15:10 | 51.02616 | -0.32768 | 5147 ft | 276 kts | 261° |
| 2026-04-24 15:10 | 51.02364 | -0.35711 | 4848 ft | 265 kts | 261° |
| 2026-04-24 15:11 | 51.02115 | -0.38601 | 4310 ft | 263 kts | 262° |
| 2026-04-24 15:11 | 51.01907 | -0.41464 | 3769 ft | 261 kts | 271° |
| 2026-04-24 15:11 | 51.02373 | -0.44226 | 3179 ft | 260 kts | 304° |
| 2026-04-24 15:11 | 51.03606 | -0.46119 | 3001 ft | 236 kts | 338° |
| 2026-04-24 15:12 | 51.05115 | -0.46743 | 3006 ft | 217 kts | 358° |
| 2026-04-24 15:12 | 51.07906 | -0.47102 | 3001 ft | 191 kts | 3° |
| 2026-04-24 15:12 | 51.09122 | -0.46538 | 2980 ft | 180 kts | 44° |
| 2026-04-24 15:13 | 51.09734 | -0.44758 | 3142 ft | 196 kts | 90° |